sensor_id;sensor_type;location;lat;lon;timestamp;P1;durP1;ratioP1;P2;durP2;ratioP2
30543;SDS011;43388;46.308;4.600;2022-07-01T00:00:52;1.10;;;1.10;;
30543;SDS011;43388;46.308;4.600;2022-07-01T00:03:18;1.25;;;1.15;;
30543;SDS011;43388;46.308;4.600;2022-07-01T00:05:44;1.40;;;1.13;;
30543;SDS011;43388;46.308;4.600;2022-07-01T00:08:10;1.00;;;1.00;;
30543;SDS011;43388;46.308;4.600;2022-07-01T00:10:36;2.42;;;0.93;;
30543;SDS011;43388;46.308;4.600;2022-07-01T00:13:03;1.85;;;1.15;;
30543;SDS011;43388;46.308;4.600;2022-07-01T00:15:29;1.75;;;1.42;;
30543;SDS011;43388;46.308;4.600;2022-07-01T00:17:55;2.05;;;1.00;;
30543;SDS011;43388;46.308;4.600;2022-07-01T00:20:22;1.20;;;1.20;;
30543;SDS011;43388;46.308;4.600;2022-07-01T00:22:48;2.83;;;1.10;;
30543;SDS011;43388;46.308;4.600;2022-07-01T00:25:15;1.17;;;1.10;;
30543;SDS011;43388;46.308;4.600;2022-07-01T00:27:41;1.98;;;1.15;;
30543;SDS011;43388;46.308;4.600;2022-07-01T00:30:08;4.90;;;1.20;;
30543;SDS011;43388;46.308;4.600;2022-07-01T00:32:34;2.40;;;1.40;;
30543;SDS011;43388;46.308;4.600;2022-07-01T00:35:00;1.00;;;1.00;;
30543;SDS011;43388;46.308;4.600;2022-07-01T00:37:27;1.40;;;1.30;;
30543;SDS011;43388;46.308;4.600;2022-07-01T00:39:53;1.35;;;1.20;;
30543;SDS011;43388;46.308;4.600;2022-07-01T00:42:19;1.23;;;1.13;;
30543;SDS011;43388;46.308;4.600;2022-07-01T00:44:45;1.00;;;1.00;;
30543;SDS011;43388;46.308;4.600;2022-07-01T00:47:11;3.13;;;1.35;;
30543;SDS011;43388;46.308;4.600;2022-07-01T00:49:38;1.30;;;1.30;;
30543;SDS011;43388;46.308;4.600;2022-07-01T00:52:05;2.30;;;1.42;;
30543;SDS011;43388;46.308;4.600;2022-07-01T00:54:32;1.38;;;1.10;;
30543;SDS011;43388;46.308;4.600;2022-07-01T00:57:04;2.33;;;1.42;;
30543;SDS011;43388;46.308;4.600;2022-07-01T00:59:30;1.92;;;1.17;;
30543;SDS011;43388;46.308;4.600;2022-07-01T01:01:57;1.02;;;1.02;;
30543;SDS011;43388;46.308;4.600;2022-07-01T01:04:23;1.45;;;1.13;;
30543;SDS011;43388;46.308;4.600;2022-07-01T01:06:49;2.42;;;1.30;;
30543;SDS011;43388;46.308;4.600;2022-07-01T01:09:16;1.52;;;1.10;;
30543;SDS011;43388;46.308;4.600;2022-07-01T01:11:42;1.20;;;1.10;;
30543;SDS011;43388;46.308;4.600;2022-07-01T01:14:08;1.65;;;1.52;;
30543;SDS011;43388;46.308;4.600;2022-07-01T01:16:34;1.30;;;1.20;;
30543;SDS011;43388;46.308;4.600;2022-07-01T01:19:03;1.20;;;1.20;;
30543;SDS011;43388;46.308;4.600;2022-07-01T01:21:29;14.45;;;1.48;;
30543;SDS011;43388;46.308;4.600;2022-07-01T01:23:56;2.08;;;1.23;;
30543;SDS011;43388;46.308;4.600;2022-07-01T01:26:23;2.15;;;1.63;;
30543;SDS011;43388;46.308;4.600;2022-07-01T01:28:50;1.50;;;1.40;;
30543;SDS011;43388;46.308;4.600;2022-07-01T01:31:17;2.22;;;1.75;;
30543;SDS011;43388;46.308;4.600;2022-07-01T01:33:43;2.92;;;1.42;;
30543;SDS011;43388;46.308;4.600;2022-07-01T01:36:10;3.10;;;1.40;;
30543;SDS011;43388;46.308;4.600;2022-07-01T01:38:36;1.30;;;1.30;;
30543;SDS011;43388;46.308;4.600;2022-07-01T01:41:03;3.25;;;1.17;;
30543;SDS011;43388;46.308;4.600;2022-07-01T01:43:29;3.65;;;1.30;;
30543;SDS011;43388;46.308;4.600;2022-07-01T01:45:55;2.22;;;1.60;;
30543;SDS011;43388;46.308;4.600;2022-07-01T01:48:21;6.88;;;1.30;;
30543;SDS011;43388;46.308;4.600;2022-07-01T01:50:47;5.03;;;1.45;;
30543;SDS011;43388;46.308;4.600;2022-07-01T01:53:13;2.15;;;1.15;;
30543;SDS011;43388;46.308;4.600;2022-07-01T01:55:39;1.30;;;1.25;;
30543;SDS011;43388;46.308;4.600;2022-07-01T01:58:05;3.47;;;1.30;;
30543;SDS011;43388;46.308;4.600;2022-07-01T02:00:31;2.63;;;1.40;;
30543;SDS011;43388;46.308;4.600;2022-07-01T02:02:57;3.22;;;1.67;;
30543;SDS011;43388;46.308;4.600;2022-07-01T02:05:23;2.28;;;1.20;;
30543;SDS011;43388;46.308;4.600;2022-07-01T02:07:49;1.30;;;1.20;;
30543;SDS011;43388;46.308;4.600;2022-07-01T02:10:15;1.85;;;1.50;;
30543;SDS011;43388;46.308;4.600;2022-07-01T02:12:41;3.20;;;1.50;;
30543;SDS011;43388;46.308;4.600;2022-07-01T02:15:07;4.53;;;1.30;;
30543;SDS011;43388;46.308;4.600;2022-07-01T02:17:33;3.85;;;1.48;;
30543;SDS011;43388;46.308;4.600;2022-07-01T02:19:59;3.03;;;1.50;;
30543;SDS011;43388;46.308;4.600;2022-07-01T02:22:25;1.50;;;1.40;;
30543;SDS011;43388;46.308;4.600;2022-07-01T02:24:51;1.45;;;1.10;;
30543;SDS011;43388;46.308;4.600;2022-07-01T02:27:17;2.92;;;1.30;;
30543;SDS011;43388;46.308;4.600;2022-07-01T02:29:44;3.33;;;1.50;;
30543;SDS011;43388;46.308;4.600;2022-07-01T02:32:10;1.55;;;1.45;;
30543;SDS011;43388;46.308;4.600;2022-07-01T02:34:36;2.17;;;1.55;;
30543;SDS011;43388;46.308;4.600;2022-07-01T02:37:02;6.60;;;1.60;;
30543;SDS011;43388;46.308;4.600;2022-07-01T02:39:28;1.55;;;1.42;;
30543;SDS011;43388;46.308;4.600;2022-07-01T02:41:54;4.28;;;1.45;;
30543;SDS011;43388;46.308;4.600;2022-07-01T02:44:38;1.67;;;1.57;;
30543;SDS011;43388;46.308;4.600;2022-07-01T02:47:04;4.57;;;1.48;;
30543;SDS011;43388;46.308;4.600;2022-07-01T02:49:31;2.58;;;2.10;;
30543;SDS011;43388;46.308;4.600;2022-07-01T02:51:57;2.13;;;1.40;;
30543;SDS011;43388;46.308;4.600;2022-07-01T02:54:23;2.35;;;1.33;;
30543;SDS011;43388;46.308;4.600;2022-07-01T02:56:49;1.58;;;1.27;;
30543;SDS011;43388;46.308;4.600;2022-07-01T02:59:15;3.83;;;1.50;;
30543;SDS011;43388;46.308;4.600;2022-07-01T03:01:40;2.85;;;1.63;;
30543;SDS011;43388;46.308;4.600;2022-07-01T03:04:07;4.80;;;1.30;;
30543;SDS011;43388;46.308;4.600;2022-07-01T03:06:33;2.80;;;1.35;;
30543;SDS011;43388;46.308;4.600;2022-07-01T03:08:59;2.05;;;1.50;;
30543;SDS011;43388;46.308;4.600;2022-07-01T03:11:24;2.65;;;1.73;;
30543;SDS011;43388;46.308;4.600;2022-07-01T03:13:50;2.90;;;1.30;;
30543;SDS011;43388;46.308;4.600;2022-07-01T03:16:16;6.05;;;1.40;;
30543;SDS011;43388;46.308;4.600;2022-07-01T03:18:42;2.28;;;1.15;;
30543;SDS011;43388;46.308;4.600;2022-07-01T03:21:08;4.45;;;1.50;;
30543;SDS011;43388;46.308;4.600;2022-07-01T03:23:34;3.45;;;1.35;;
30543;SDS011;43388;46.308;4.600;2022-07-01T03:26:00;1.23;;;1.00;;
30543;SDS011;43388;46.308;4.600;2022-07-01T03:28:26;1.85;;;1.30;;
30543;SDS011;43388;46.308;4.600;2022-07-01T03:30:52;1.52;;;1.25;;
30543;SDS011;43388;46.308;4.600;2022-07-01T03:33:18;1.20;;;1.02;;
30543;SDS011;43388;46.308;4.600;2022-07-01T03:35:44;1.25;;;1.25;;
30543;SDS011;43388;46.308;4.600;2022-07-01T03:38:11;1.17;;;1.15;;
30543;SDS011;43388;46.308;4.600;2022-07-01T03:40:37;1.38;;;1.38;;
30543;SDS011;43388;46.308;4.600;2022-07-01T03:43:03;3.28;;;1.48;;
30543;SDS011;43388;46.308;4.600;2022-07-01T03:45:29;2.13;;;1.55;;
30543;SDS011;43388;46.308;4.600;2022-07-01T03:47:55;2.65;;;1.42;;
30543;SDS011;43388;46.308;4.600;2022-07-01T03:50:22;4.35;;;1.63;;
30543;SDS011;43388;46.308;4.600;2022-07-01T03:52:48;2.08;;;1.30;;
30543;SDS011;43388;46.308;4.600;2022-07-01T03:55:34;1.55;;;1.33;;
30543;SDS011;43388;46.308;4.600;2022-07-01T03:58:00;2.47;;;1.60;;
30543;SDS011;43388;46.308;4.600;2022-07-01T04:00:26;2.00;;;1.17;;
30543;SDS011;43388;46.308;4.600;2022-07-01T04:02:53;1.50;;;1.40;;
30543;SDS011;43388;46.308;4.600;2022-07-01T04:05:19;1.85;;;1.30;;
30543;SDS011;43388;46.308;4.600;2022-07-01T04:07:46;2.20;;;1.42;;
30543;SDS011;43388;46.308;4.600;2022-07-01T04:10:12;3.75;;;1.48;;
30543;SDS011;43388;46.308;4.600;2022-07-01T04:12:38;1.20;;;1.20;;
30543;SDS011;43388;46.308;4.600;2022-07-01T04:15:04;1.40;;;1.35;;
30543;SDS011;43388;46.308;4.600;2022-07-01T04:17:31;1.60;;;1.50;;
30543;SDS011;43388;46.308;4.600;2022-07-01T04:19:57;3.42;;;1.48;;
30543;SDS011;43388;46.308;4.600;2022-07-01T04:22:23;4.57;;;1.58;;
30543;SDS011;43388;46.308;4.600;2022-07-01T04:27:24;1.77;;;1.67;;
30543;SDS011;43388;46.308;4.600;2022-07-01T04:29:50;2.25;;;1.60;;
30543;SDS011;43388;46.308;4.600;2022-07-01T04:32:16;3.15;;;1.40;;
30543;SDS011;43388;46.308;4.600;2022-07-01T04:34:42;3.00;;;1.50;;
30543;SDS011;43388;46.308;4.600;2022-07-01T04:37:08;1.67;;;1.58;;
30543;SDS011;43388;46.308;4.600;2022-07-01T04:39:34;2.60;;;1.48;;
30543;SDS011;43388;46.308;4.600;2022-07-01T04:42:00;2.35;;;1.92;;
30543;SDS011;43388;46.308;4.600;2022-07-01T04:44:30;2.30;;;1.73;;
30543;SDS011;43388;46.308;4.600;2022-07-01T04:46:57;2.38;;;1.60;;
30543;SDS011;43388;46.308;4.600;2022-07-01T04:49:23;2.08;;;1.50;;
30543;SDS011;43388;46.308;4.600;2022-07-01T04:51:49;1.70;;;1.50;;
30543;SDS011;43388;46.308;4.600;2022-07-01T04:54:15;2.75;;;1.60;;
30543;SDS011;43388;46.308;4.600;2022-07-01T04:56:42;1.67;;;1.58;;
30543;SDS011;43388;46.308;4.600;2022-07-01T04:59:08;3.75;;;1.90;;
30543;SDS011;43388;46.308;4.600;2022-07-01T05:01:34;1.77;;;1.67;;
30543;SDS011;43388;46.308;4.600;2022-07-01T05:04:00;1.80;;;1.70;;
30543;SDS011;43388;46.308;4.600;2022-07-01T05:06:26;2.22;;;1.70;;
30543;SDS011;43388;46.308;4.600;2022-07-01T05:08:52;3.33;;;1.60;;
30543;SDS011;43388;46.308;4.600;2022-07-01T05:11:18;4.32;;;1.90;;
30543;SDS011;43388;46.308;4.600;2022-07-01T05:13:45;3.83;;;1.70;;
30543;SDS011;43388;46.308;4.600;2022-07-01T05:16:11;1.70;;;1.60;;
30543;SDS011;43388;46.308;4.600;2022-07-01T05:18:37;4.43;;;1.70;;
30543;SDS011;43388;46.308;4.600;2022-07-01T05:21:22;2.90;;;1.90;;
30543;SDS011;43388;46.308;4.600;2022-07-01T05:24:07;4.18;;;1.52;;
30543;SDS011;43388;46.308;4.600;2022-07-01T05:26:33;2.38;;;1.65;;
30543;SDS011;43388;46.308;4.600;2022-07-01T05:28:59;2.78;;;1.60;;
30543;SDS011;43388;46.308;4.600;2022-07-01T05:31:25;2.88;;;1.55;;
30543;SDS011;43388;46.308;4.600;2022-07-01T05:33:51;4.28;;;1.98;;
30543;SDS011;43388;46.308;4.600;2022-07-01T05:36:17;3.40;;;1.70;;
30543;SDS011;43388;46.308;4.600;2022-07-01T05:38:43;3.97;;;2.05;;
30543;SDS011;43388;46.308;4.600;2022-07-01T05:41:09;3.33;;;2.58;;
30543;SDS011;43388;46.308;4.600;2022-07-01T05:43:35;3.13;;;1.70;;
30543;SDS011;43388;46.308;4.600;2022-07-01T05:46:01;3.92;;;2.17;;
30543;SDS011;43388;46.308;4.600;2022-07-01T05:48:27;3.70;;;1.88;;
30543;SDS011;43388;46.308;4.600;2022-07-01T05:50:53;3.53;;;1.60;;
30543;SDS011;43388;46.308;4.600;2022-07-01T05:53:19;2.80;;;2.25;;
30543;SDS011;43388;46.308;4.600;2022-07-01T05:55:46;2.33;;;1.83;;
30543;SDS011;43388;46.308;4.600;2022-07-01T05:58:12;2.83;;;1.88;;
30543;SDS011;43388;46.308;4.600;2022-07-01T06:00:39;7.65;;;2.20;;
30543;SDS011;43388;46.308;4.600;2022-07-01T06:03:08;5.97;;;1.90;;
30543;SDS011;43388;46.308;4.600;2022-07-01T06:05:35;2.72;;;1.73;;
30543;SDS011;43388;46.308;4.600;2022-07-01T06:08:01;2.50;;;2.10;;
30543;SDS011;43388;46.308;4.600;2022-07-01T06:10:27;3.97;;;2.33;;
30543;SDS011;43388;46.308;4.600;2022-07-01T06:12:54;6.03;;;2.05;;
30543;SDS011;43388;46.308;4.600;2022-07-01T06:15:20;2.33;;;1.83;;
30543;SDS011;43388;46.308;4.600;2022-07-01T06:17:46;3.00;;;2.00;;
30543;SDS011;43388;46.308;4.600;2022-07-01T06:20:12;4.90;;;1.85;;
30543;SDS011;43388;46.308;4.600;2022-07-01T06:22:38;4.65;;;2.30;;
30543;SDS011;43388;46.308;4.600;2022-07-01T06:25:04;2.90;;;2.40;;
30543;SDS011;43388;46.308;4.600;2022-07-01T06:27:30;5.80;;;1.83;;
30543;SDS011;43388;46.308;4.600;2022-07-01T06:29:56;3.45;;;2.03;;
30543;SDS011;43388;46.308;4.600;2022-07-01T06:32:22;4.13;;;2.00;;
30543;SDS011;43388;46.308;4.600;2022-07-01T06:34:48;6.30;;;2.15;;
30543;SDS011;43388;46.308;4.600;2022-07-01T06:37:14;5.43;;;2.15;;
30543;SDS011;43388;46.308;4.600;2022-07-01T06:39:40;6.50;;;2.47;;
30543;SDS011;43388;46.308;4.600;2022-07-01T06:42:06;3.92;;;1.80;;
30543;SDS011;43388;46.308;4.600;2022-07-01T06:44:33;2.65;;;1.85;;
30543;SDS011;43388;46.308;4.600;2022-07-01T06:46:59;4.03;;;1.85;;
30543;SDS011;43388;46.308;4.600;2022-07-01T06:49:25;12.10;;;2.00;;
30543;SDS011;43388;46.308;4.600;2022-07-01T06:51:51;4.90;;;1.95;;
30543;SDS011;43388;46.308;4.600;2022-07-01T06:54:17;3.30;;;1.60;;
30543;SDS011;43388;46.308;4.600;2022-07-01T06:56:43;4.70;;;2.45;;
30543;SDS011;43388;46.308;4.600;2022-07-01T06:59:09;4.78;;;2.13;;
30543;SDS011;43388;46.308;4.600;2022-07-01T07:01:35;5.85;;;1.90;;
30543;SDS011;43388;46.308;4.600;2022-07-01T07:04:02;3.47;;;1.65;;
30543;SDS011;43388;46.308;4.600;2022-07-01T07:06:28;5.03;;;1.98;;
30543;SDS011;43388;46.308;4.600;2022-07-01T07:08:54;2.50;;;1.75;;
30543;SDS011;43388;46.308;4.600;2022-07-01T07:11:20;2.03;;;1.48;;
30543;SDS011;43388;46.308;4.600;2022-07-01T07:13:46;5.82;;;2.33;;
30543;SDS011;43388;46.308;4.600;2022-07-01T07:16:12;7.78;;;2.40;;
30543;SDS011;43388;46.308;4.600;2022-07-01T07:18:38;3.80;;;1.52;;
30543;SDS011;43388;46.308;4.600;2022-07-01T07:21:04;5.50;;;2.30;;
30543;SDS011;43388;46.308;4.600;2022-07-01T07:23:30;5.70;;;1.70;;
30543;SDS011;43388;46.308;4.600;2022-07-01T07:25:57;9.05;;;2.17;;
30543;SDS011;43388;46.308;4.600;2022-07-01T07:28:23;6.40;;;1.80;;
30543;SDS011;43388;46.308;4.600;2022-07-01T07:30:49;4.07;;;2.10;;
30543;SDS011;43388;46.308;4.600;2022-07-01T07:33:15;2.65;;;1.75;;
30543;SDS011;43388;46.308;4.600;2022-07-01T07:35:41;6.45;;;2.30;;
30543;SDS011;43388;46.308;4.600;2022-07-01T07:38:08;2.85;;;2.20;;
30543;SDS011;43388;46.308;4.600;2022-07-01T07:40:35;6.10;;;2.13;;
30543;SDS011;43388;46.308;4.600;2022-07-01T07:43:01;9.25;;;2.35;;
30543;SDS011;43388;46.308;4.600;2022-07-01T07:45:28;3.92;;;1.70;;
30543;SDS011;43388;46.308;4.600;2022-07-01T07:47:54;5.30;;;2.08;;
30543;SDS011;43388;46.308;4.600;2022-07-01T07:50:21;6.93;;;2.13;;
30543;SDS011;43388;46.308;4.600;2022-07-01T07:52:48;7.13;;;1.50;;
30543;SDS011;43388;46.308;4.600;2022-07-01T07:55:14;4.60;;;1.55;;
30543;SDS011;43388;46.308;4.600;2022-07-01T07:57:40;4.55;;;1.70;;
30543;SDS011;43388;46.308;4.600;2022-07-01T08:00:07;3.63;;;1.77;;
30543;SDS011;43388;46.308;4.600;2022-07-01T08:02:35;7.43;;;1.88;;
30543;SDS011;43388;46.308;4.600;2022-07-01T08:05:01;3.55;;;1.95;;
30543;SDS011;43388;46.308;4.600;2022-07-01T08:07:27;3.38;;;1.50;;
30543;SDS011;43388;46.308;4.600;2022-07-01T08:09:53;5.88;;;1.70;;
30543;SDS011;43388;46.308;4.600;2022-07-01T08:12:20;6.15;;;1.85;;
30543;SDS011;43388;46.308;4.600;2022-07-01T08:14:47;3.90;;;1.58;;
30543;SDS011;43388;46.308;4.600;2022-07-01T08:17:13;8.10;;;1.90;;
30543;SDS011;43388;46.308;4.600;2022-07-01T08:19:39;6.25;;;2.58;;
30543;SDS011;43388;46.308;4.600;2022-07-01T08:22:05;3.25;;;1.88;;
30543;SDS011;43388;46.308;4.600;2022-07-01T08:24:31;10.93;;;2.03;;
30543;SDS011;43388;46.308;4.600;2022-07-01T08:26:57;2.20;;;1.85;;
30543;SDS011;43388;46.308;4.600;2022-07-01T08:29:23;3.55;;;1.50;;
30543;SDS011;43388;46.308;4.600;2022-07-01T08:31:49;4.90;;;1.65;;
30543;SDS011;43388;46.308;4.600;2022-07-01T08:34:15;3.95;;;1.50;;
30543;SDS011;43388;46.308;4.600;2022-07-01T08:36:41;2.83;;;1.50;;
30543;SDS011;43388;46.308;4.600;2022-07-01T08:39:07;9.70;;;2.10;;
30543;SDS011;43388;46.308;4.600;2022-07-01T08:41:33;3.05;;;1.70;;
30543;SDS011;43388;46.308;4.600;2022-07-01T08:43:59;6.22;;;2.13;;
30543;SDS011;43388;46.308;4.600;2022-07-01T08:46:26;3.78;;;1.83;;
30543;SDS011;43388;46.308;4.600;2022-07-01T08:48:52;5.15;;;1.83;;
30543;SDS011;43388;46.308;4.600;2022-07-01T08:51:18;4.45;;;2.10;;
30543;SDS011;43388;46.308;4.600;2022-07-01T08:53:44;3.75;;;2.15;;
30543;SDS011;43388;46.308;4.600;2022-07-01T08:56:10;3.58;;;1.95;;
30543;SDS011;43388;46.308;4.600;2022-07-01T08:58:55;3.40;;;1.60;;
30543;SDS011;43388;46.308;4.600;2022-07-01T09:01:22;3.60;;;1.90;;
30543;SDS011;43388;46.308;4.600;2022-07-01T09:03:51;9.95;;;1.92;;
30543;SDS011;43388;46.308;4.600;2022-07-01T09:06:21;4.35;;;1.75;;
30543;SDS011;43388;46.308;4.600;2022-07-01T09:08:47;3.60;;;1.85;;
30543;SDS011;43388;46.308;4.600;2022-07-01T09:11:17;3.05;;;1.50;;
30543;SDS011;43388;46.308;4.600;2022-07-01T09:13:43;2.63;;;1.70;;
30543;SDS011;43388;46.308;4.600;2022-07-01T09:16:14;1.75;;;1.20;;
30543;SDS011;43388;46.308;4.600;2022-07-01T09:18:40;4.00;;;1.60;;
30543;SDS011;43388;46.308;4.600;2022-07-01T09:21:26;3.38;;;1.60;;
30543;SDS011;43388;46.308;4.600;2022-07-01T09:23:53;5.18;;;1.60;;
30543;SDS011;43388;46.308;4.600;2022-07-01T09:26:19;5.50;;;1.67;;
30543;SDS011;43388;46.308;4.600;2022-07-01T09:28:51;5.07;;;1.70;;
30543;SDS011;43388;46.308;4.600;2022-07-01T09:31:17;10.52;;;1.60;;
30543;SDS011;43388;46.308;4.600;2022-07-01T09:33:43;5.28;;;1.52;;
30543;SDS011;43388;46.308;4.600;2022-07-01T09:36:14;4.32;;;1.52;;
30543;SDS011;43388;46.308;4.600;2022-07-01T09:38:47;2.15;;;1.42;;
30543;SDS011;43388;46.308;4.600;2022-07-01T09:41:13;7.40;;;1.80;;
30543;SDS011;43388;46.308;4.600;2022-07-01T09:43:39;3.30;;;1.45;;
30543;SDS011;43388;46.308;4.600;2022-07-01T09:46:06;2.97;;;1.38;;
30543;SDS011;43388;46.308;4.600;2022-07-01T09:51:02;2.28;;;1.25;;
30543;SDS011;43388;46.308;4.600;2022-07-01T09:53:29;12.32;;;2.25;;
30543;SDS011;43388;46.308;4.600;2022-07-01T09:55:55;4.57;;;1.60;;
30543;SDS011;43388;46.308;4.600;2022-07-01T09:58:21;8.73;;;1.38;;
30543;SDS011;43388;46.308;4.600;2022-07-01T10:00:47;2.85;;;1.45;;
30543;SDS011;43388;46.308;4.600;2022-07-01T10:03:13;2.78;;;1.60;;
30543;SDS011;43388;46.308;4.600;2022-07-01T10:05:47;6.82;;;1.67;;
30543;SDS011;43388;46.308;4.600;2022-07-01T10:08:22;4.60;;;1.52;;
30543;SDS011;43388;46.308;4.600;2022-07-01T10:13:25;2.83;;;1.60;;
30543;SDS011;43388;46.308;4.600;2022-07-01T10:15:52;2.83;;;1.50;;
30543;SDS011;43388;46.308;4.600;2022-07-01T10:18:19;4.63;;;1.50;;
30543;SDS011;43388;46.308;4.600;2022-07-01T10:20:47;2.45;;;1.30;;
30543;SDS011;43388;46.308;4.600;2022-07-01T10:23:13;5.63;;;1.42;;
30543;SDS011;43388;46.308;4.600;2022-07-01T10:25:46;4.05;;;1.10;;
30543;SDS011;43388;46.308;4.600;2022-07-01T10:33:27;2.22;;;1.17;;
30543;SDS011;43388;46.308;4.600;2022-07-01T10:35:53;1.88;;;1.00;;
30543;SDS011;43388;46.308;4.600;2022-07-01T10:38:19;2.70;;;1.20;;
30543;SDS011;43388;46.308;4.600;2022-07-01T10:40:46;1.48;;;1.10;;
30543;SDS011;43388;46.308;4.600;2022-07-01T10:43:16;2.83;;;1.20;;
30543;SDS011;43388;46.308;4.600;2022-07-01T10:45:45;3.08;;;1.42;;
30543;SDS011;43388;46.308;4.600;2022-07-01T10:48:21;1.88;;;1.35;;
30543;SDS011;43388;46.308;4.600;2022-07-01T10:50:48;2.17;;;1.17;;
30543;SDS011;43388;46.308;4.600;2022-07-01T10:53:15;4.63;;;1.20;;
30543;SDS011;43388;46.308;4.600;2022-07-01T10:55:44;2.55;;;1.20;;
30543;SDS011;43388;46.308;4.600;2022-07-01T10:58:10;2.25;;;1.17;;
30543;SDS011;43388;46.308;4.600;2022-07-01T11:00:39;1.77;;;1.00;;
30543;SDS011;43388;46.308;4.600;2022-07-01T11:05:41;2.92;;;0.90;;
30543;SDS011;43388;46.308;4.600;2022-07-01T11:08:08;2.25;;;1.20;;
30543;SDS011;43388;46.308;4.600;2022-07-01T11:10:34;2.55;;;1.05;;
30543;SDS011;43388;46.308;4.600;2022-07-01T11:13:00;2.42;;;1.17;;
30543;SDS011;43388;46.308;4.600;2022-07-01T11:15:28;2.40;;;1.20;;
30543;SDS011;43388;46.308;4.600;2022-07-01T11:17:55;2.90;;;1.48;;
30543;SDS011;43388;46.308;4.600;2022-07-01T11:20:22;2.50;;;1.10;;
30543;SDS011;43388;46.308;4.600;2022-07-01T11:22:49;1.88;;;1.10;;
30543;SDS011;43388;46.308;4.600;2022-07-01T11:25:15;1.23;;;1.00;;
30543;SDS011;43388;46.308;4.600;2022-07-01T11:27:45;3.47;;;1.23;;
30543;SDS011;43388;46.308;4.600;2022-07-01T11:30:11;3.60;;;1.20;;
30543;SDS011;43388;46.308;4.600;2022-07-01T11:32:39;1.00;;;0.90;;
30543;SDS011;43388;46.308;4.600;2022-07-01T11:35:09;2.50;;;0.90;;
30543;SDS011;43388;46.308;4.600;2022-07-01T11:40:57;1.23;;;0.90;;
30543;SDS011;43388;46.308;4.600;2022-07-01T11:43:26;3.33;;;0.95;;
30543;SDS011;43388;46.308;4.600;2022-07-01T11:45:52;1.42;;;1.10;;
30543;SDS011;43388;46.308;4.600;2022-07-01T11:48:32;1.30;;;1.10;;
30543;SDS011;43388;46.308;4.600;2022-07-01T11:50:58;3.65;;;1.00;;
30543;SDS011;43388;46.308;4.600;2022-07-01T11:53:25;1.42;;;1.05;;
30543;SDS011;43388;46.308;4.600;2022-07-01T11:55:51;1.95;;;1.17;;
30543;SDS011;43388;46.308;4.600;2022-07-01T11:58:17;1.95;;;1.10;;
30543;SDS011;43388;46.308;4.600;2022-07-01T12:00:43;1.23;;;0.85;;
30543;SDS011;43388;46.308;4.600;2022-07-01T12:03:09;2.22;;;0.95;;
30543;SDS011;43388;46.308;4.600;2022-07-01T12:05:36;1.85;;;1.27;;
30543;SDS011;43388;46.308;4.600;2022-07-01T12:08:02;2.58;;;0.88;;
30543;SDS011;43388;46.308;4.600;2022-07-01T12:10:29;1.05;;;0.95;;
30543;SDS011;43388;46.308;4.600;2022-07-01T12:12:55;3.47;;;0.90;;
30543;SDS011;43388;46.308;4.600;2022-07-01T12:15:22;1.75;;;0.90;;
30543;SDS011;43388;46.308;4.600;2022-07-01T12:17:48;2.40;;;1.10;;
30543;SDS011;43388;46.308;4.600;2022-07-01T12:20:14;2.22;;;1.10;;
30543;SDS011;43388;46.308;4.600;2022-07-01T12:22:40;1.27;;;0.70;;
30543;SDS011;43388;46.308;4.600;2022-07-01T12:25:13;2.85;;;0.82;;
30543;SDS011;43388;46.308;4.600;2022-07-01T12:27:41;1.88;;;1.00;;
30543;SDS011;43388;46.308;4.600;2022-07-01T12:30:09;1.17;;;0.85;;
30543;SDS011;43388;46.308;4.600;2022-07-01T12:32:36;2.80;;;0.80;;
30543;SDS011;43388;46.308;4.600;2022-07-01T12:35:04;1.40;;;1.02;;
30543;SDS011;43388;46.308;4.600;2022-07-01T12:37:37;1.42;;;1.00;;
30543;SDS011;43388;46.308;4.600;2022-07-01T12:40:07;1.60;;;1.10;;
30543;SDS011;43388;46.308;4.600;2022-07-01T12:42:35;3.60;;;1.02;;
30543;SDS011;43388;46.308;4.600;2022-07-01T12:45:05;1.17;;;0.75;;
30543;SDS011;43388;46.308;4.600;2022-07-01T12:47:33;1.30;;;1.10;;
30543;SDS011;43388;46.308;4.600;2022-07-01T12:50:13;1.92;;;0.85;;
30543;SDS011;43388;46.308;4.600;2022-07-01T12:52:40;1.13;;;0.82;;
30543;SDS011;43388;46.308;4.600;2022-07-01T12:55:13;2.72;;;1.08;;
30543;SDS011;43388;46.308;4.600;2022-07-01T12:57:39;2.05;;;0.90;;
30543;SDS011;43388;46.308;4.600;2022-07-01T13:00:06;3.53;;;1.10;;
30543;SDS011;43388;46.308;4.600;2022-07-01T13:02:32;1.75;;;0.98;;
30543;SDS011;43388;46.308;4.600;2022-07-01T13:04:58;3.85;;;1.60;;
30543;SDS011;43388;46.308;4.600;2022-07-01T13:07:24;6.55;;;1.30;;
30543;SDS011;43388;46.308;4.600;2022-07-01T13:09:50;2.72;;;0.80;;
30543;SDS011;43388;46.308;4.600;2022-07-01T13:12:16;1.95;;;0.90;;
30543;SDS011;43388;46.308;4.600;2022-07-01T13:14:42;2.78;;;0.98;;
30543;SDS011;43388;46.308;4.600;2022-07-01T13:17:09;3.67;;;1.13;;
30543;SDS011;43388;46.308;4.600;2022-07-01T13:19:35;2.58;;;1.00;;
30543;SDS011;43388;46.308;4.600;2022-07-01T13:22:02;9.15;;;1.13;;
30543;SDS011;43388;46.308;4.600;2022-07-01T13:24:28;2.35;;;0.85;;
30543;SDS011;43388;46.308;4.600;2022-07-01T13:26:54;3.35;;;1.27;;
30543;SDS011;43388;46.308;4.600;2022-07-01T13:29:20;2.22;;;0.80;;
30543;SDS011;43388;46.308;4.600;2022-07-01T13:31:46;3.10;;;0.95;;
30543;SDS011;43388;46.308;4.600;2022-07-01T13:34:12;4.07;;;1.10;;
30543;SDS011;43388;46.308;4.600;2022-07-01T13:36:38;1.60;;;0.77;;
30543;SDS011;43388;46.308;4.600;2022-07-01T13:39:04;2.78;;;0.80;;
30543;SDS011;43388;46.308;4.600;2022-07-01T13:41:30;1.90;;;0.80;;
30543;SDS011;43388;46.308;4.600;2022-07-01T13:43:56;3.13;;;0.80;;
30543;SDS011;43388;46.308;4.600;2022-07-01T13:46:22;2.58;;;0.80;;
30543;SDS011;43388;46.308;4.600;2022-07-01T13:48:48;3.42;;;1.13;;
30543;SDS011;43388;46.308;4.600;2022-07-01T13:51:14;6.32;;;1.20;;
30543;SDS011;43388;46.308;4.600;2022-07-01T13:53:40;0.70;;;0.70;;
30543;SDS011;43388;46.308;4.600;2022-07-01T13:56:07;2.83;;;0.90;;
30543;SDS011;43388;46.308;4.600;2022-07-01T13:58:33;3.40;;;1.35;;
30543;SDS011;43388;46.308;4.600;2022-07-01T14:00:59;1.98;;;0.88;;
30543;SDS011;43388;46.308;4.600;2022-07-01T14:03:25;3.55;;;1.00;;
30543;SDS011;43388;46.308;4.600;2022-07-01T14:05:51;1.95;;;1.23;;
30543;SDS011;43388;46.308;4.600;2022-07-01T14:08:18;1.65;;;0.90;;
30543;SDS011;43388;46.308;4.600;2022-07-01T14:10:44;1.50;;;0.88;;
30543;SDS011;43388;46.308;4.600;2022-07-01T14:13:11;1.13;;;0.70;;
30543;SDS011;43388;46.308;4.600;2022-07-01T14:15:37;1.08;;;0.73;;
30543;SDS011;43388;46.308;4.600;2022-07-01T14:18:03;2.95;;;1.00;;
30543;SDS011;43388;46.308;4.600;2022-07-01T14:20:29;1.05;;;0.60;;
30543;SDS011;43388;46.308;4.600;2022-07-01T14:22:56;1.25;;;0.77;;
30543;SDS011;43388;46.308;4.600;2022-07-01T14:25:22;3.03;;;0.90;;
30543;SDS011;43388;46.308;4.600;2022-07-01T14:27:48;5.88;;;0.90;;
30543;SDS011;43388;46.308;4.600;2022-07-01T14:30:14;1.40;;;0.80;;
30543;SDS011;43388;46.308;4.600;2022-07-01T14:32:41;1.38;;;1.00;;
30543;SDS011;43388;46.308;4.600;2022-07-01T14:35:07;2.45;;;0.88;;
30543;SDS011;43388;46.308;4.600;2022-07-01T14:37:34;2.20;;;1.10;;
30543;SDS011;43388;46.308;4.600;2022-07-01T14:40:02;2.25;;;0.90;;
30543;SDS011;43388;46.308;4.600;2022-07-01T14:42:28;3.35;;;0.80;;
30543;SDS011;43388;46.308;4.600;2022-07-01T14:44:54;1.67;;;0.68;;
30543;SDS011;43388;46.308;4.600;2022-07-01T14:47:21;1.83;;;0.88;;
30543;SDS011;43388;46.308;4.600;2022-07-01T14:49:47;2.70;;;0.93;;
30543;SDS011;43388;46.308;4.600;2022-07-01T14:52:16;1.75;;;0.70;;
30543;SDS011;43388;46.308;4.600;2022-07-01T14:54:45;3.45;;;1.00;;
30543;SDS011;43388;46.308;4.600;2022-07-01T14:57:11;1.25;;;0.85;;
30543;SDS011;43388;46.308;4.600;2022-07-01T14:59:37;1.00;;;0.70;;
30543;SDS011;43388;46.308;4.600;2022-07-01T15:02:03;2.88;;;0.75;;
30543;SDS011;43388;46.308;4.600;2022-07-01T15:04:30;1.80;;;0.82;;